sensor_id;sensor_type;location;lat;lon;timestamp;pressure;altitude;pressure_sealevel;temperature;humidity
72370;BME280;60343;-32.030;115.880;2023-05-11T00:02:25;102829.97;;;14.01;78.34
72370;BME280;60343;-32.030;115.880;2023-05-11T00:05:00;102837.91;;;14.12;76.82
72370;BME280;60343;-32.030;115.880;2023-05-11T00:07:34;102846.63;;;14.24;76.27
72370;BME280;60343;-32.030;115.880;2023-05-11T00:10:09;102843.66;;;14.36;75.57
72370;BME280;60343;-32.030;115.880;2023-05-11T00:12:44;102850.28;;;14.51;74.98
72370;BME280;60343;-32.030;115.880;2023-05-11T00:15:24;102849.69;;;14.57;73.23
72370;BME280;60343;-32.030;115.880;2023-05-11T00:17:59;102852.03;;;14.70;73.38
72370;BME280;60343;-32.030;115.880;2023-05-11T00:20:33;102854.53;;;14.81;72.20
72370;BME280;60343;-32.030;115.880;2023-05-11T00:23:08;102860.97;;;14.98;70.72
72370;BME280;60343;-32.030;115.880;2023-05-11T00:25:42;102853.59;;;15.18;69.06
72370;BME280;60343;-32.030;115.880;2023-05-11T00:28:17;102866.81;;;15.38;69.06
72370;BME280;60343;-32.030;115.880;2023-05-11T00:30:57;102870.69;;;15.89;67.82
72370;BME280;60343;-32.030;115.880;2023-05-11T00:33:32;102866.94;;;16.08;67.02
72370;BME280;60343;-32.030;115.880;2023-05-11T00:36:07;102869.53;;;16.17;64.92
72370;BME280;60343;-32.030;115.880;2023-05-11T00:38:41;102871.63;;;16.31;65.25
72370;BME280;60343;-32.030;115.880;2023-05-11T00:41:16;102877.28;;;16.46;64.99
72370;BME280;60343;-32.030;115.880;2023-05-11T00:43:51;102874.09;;;17.19;62.78
72370;BME280;60343;-32.030;115.880;2023-05-11T00:46:31;102876.22;;;18.06;61.50
72370;BME280;60343;-32.030;115.880;2023-05-11T00:49:07;102878.41;;;18.81;57.99
72370;BME280;60343;-32.030;115.880;2023-05-11T00:51:44;102884.63;;;19.29;53.88
72370;BME280;60343;-32.030;115.880;2023-05-11T00:54:18;102894.31;;;19.77;52.90
72370;BME280;60343;-32.030;115.880;2023-05-11T00:56:53;102901.19;;;20.10;51.69
72370;BME280;60343;-32.030;115.880;2023-05-11T00:59:27;102892.72;;;20.43;50.78
72370;BME280;60343;-32.030;115.880;2023-05-11T01:02:08;102896.78;;;20.76;49.47
72370;BME280;60343;-32.030;115.880;2023-05-11T01:04:43;102891.19;;;20.99;47.46
72370;BME280;60343;-32.030;115.880;2023-05-11T01:07:22;102901.97;;;21.36;48.07
72370;BME280;60343;-32.030;115.880;2023-05-11T01:10:02;102889.88;;;21.24;47.87
72370;BME280;60343;-32.030;115.880;2023-05-11T01:12:43;102892.78;;;21.08;48.56
72370;BME280;60343;-32.030;115.880;2023-05-11T01:15:25;102894.81;;;21.35;47.16
72370;BME280;60343;-32.030;115.880;2023-05-11T01:18:13;102891.59;;;21.47;45.47
72370;BME280;60343;-32.030;115.880;2023-05-11T01:20:54;102893.44;;;21.25;46.33
72370;BME280;60343;-32.030;115.880;2023-05-11T01:23:59;102890.25;;;21.07;44.72
72370;BME280;60343;-32.030;115.880;2023-05-11T01:26:48;102893.06;;;20.98;45.67
72370;BME280;60343;-32.030;115.880;2023-05-11T01:29:43;102897.25;;;20.80;45.47
72370;BME280;60343;-32.030;115.880;2023-05-11T01:32:26;102898.84;;;20.45;44.62
72370;BME280;60343;-32.030;115.880;2023-05-11T01:35:05;102901.22;;;20.25;45.08
72370;BME280;60343;-32.030;115.880;2023-05-11T01:37:43;102907.34;;;20.04;46.21
72370;BME280;60343;-32.030;115.880;2023-05-11T01:40:21;102901.88;;;19.90;45.30
72370;BME280;60343;-32.030;115.880;2023-05-11T01:43:01;102903.19;;;19.94;46.58
72370;BME280;60343;-32.030;115.880;2023-05-11T01:45:39;102901.59;;;19.85;45.38
72370;BME280;60343;-32.030;115.880;2023-05-11T01:48:21;102896.56;;;19.74;44.32
72370;BME280;60343;-32.030;115.880;2023-05-11T01:51:00;102904.53;;;19.52;45.35
72370;BME280;60343;-32.030;115.880;2023-05-11T01:53:37;102899.66;;;19.40;45.74
72370;BME280;60343;-32.030;115.880;2023-05-11T01:56:13;102907.66;;;19.41;46.53
72370;BME280;60343;-32.030;115.880;2023-05-11T01:58:47;102900.88;;;19.37;46.67
72370;BME280;60343;-32.030;115.880;2023-05-11T02:01:24;102901.94;;;19.28;45.93
72370;BME280;60343;-32.030;115.880;2023-05-11T02:04:05;102901.78;;;19.21;46.90
72370;BME280;60343;-32.030;115.880;2023-05-11T02:06:43;102910.84;;;19.14;47.35
72370;BME280;60343;-32.030;115.880;2023-05-11T02:09:18;102916.97;;;19.08;48.01
72370;BME280;60343;-32.030;115.880;2023-05-11T02:11:55;102904.88;;;19.18;45.84
72370;BME280;60343;-32.030;115.880;2023-05-11T02:14:32;102910.06;;;20.04;42.88
72370;BME280;60343;-32.030;115.880;2023-05-11T02:17:08;102916.16;;;21.03;41.98
72370;BME280;60343;-32.030;115.880;2023-05-11T02:19:49;102909.44;;;21.70;40.24
72370;BME280;60343;-32.030;115.880;2023-05-11T02:22:25;102913.06;;;22.20;39.65
72370;BME280;60343;-32.030;115.880;2023-05-11T02:25:00;102907.16;;;22.44;37.95
72370;BME280;60343;-32.030;115.880;2023-05-11T02:27:35;102903.44;;;22.52;38.63
72370;BME280;60343;-32.030;115.880;2023-05-11T02:30:10;102896.84;;;22.74;38.66
72370;BME280;60343;-32.030;115.880;2023-05-11T02:32:50;102896.53;;;22.90;37.13
72370;BME280;60343;-32.030;115.880;2023-05-11T02:35:35;102892.78;;;22.98;38.10
72370;BME280;60343;-32.030;115.880;2023-05-11T02:38:11;102897.91;;;23.21;37.20
72370;BME280;60343;-32.030;115.880;2023-05-11T02:40:48;102895.75;;;23.09;36.82
72370;BME280;60343;-32.030;115.880;2023-05-11T02:43:24;102899.34;;;23.03;36.95
72370;BME280;60343;-32.030;115.880;2023-05-11T02:46:04;102901.13;;;22.90;37.23
72370;BME280;60343;-32.030;115.880;2023-05-11T02:48:42;102894.59;;;22.50;37.76
72370;BME280;60343;-32.030;115.880;2023-05-11T02:51:28;102902.56;;;22.17;38.40
72370;BME280;60343;-32.030;115.880;2023-05-11T02:54:06;102895.81;;;22.13;39.12
72370;BME280;60343;-32.030;115.880;2023-05-11T02:56:41;102892.84;;;21.93;38.89
72370;BME280;60343;-32.030;115.880;2023-05-11T02:59:16;102894.13;;;21.69;40.48
72370;BME280;60343;-32.030;115.880;2023-05-11T03:01:51;102887.44;;;21.51;39.90
72370;BME280;60343;-32.030;115.880;2023-05-11T03:04:26;102895.09;;;21.62;39.71
72370;BME280;60343;-32.030;115.880;2023-05-11T03:07:07;102891.09;;;21.58;40.97
72370;BME280;60343;-32.030;115.880;2023-05-11T03:09:41;102888.59;;;21.63;40.48
72370;BME280;60343;-32.030;115.880;2023-05-11T03:12:16;102886.66;;;21.99;41.59
72370;BME280;60343;-32.030;115.880;2023-05-11T03:14:51;102879.63;;;22.11;40.62
72370;BME280;60343;-32.030;115.880;2023-05-11T03:17:27;102878.38;;;22.42;40.28
72370;BME280;60343;-32.030;115.880;2023-05-11T03:20:04;102876.44;;;22.70;39.20
72370;BME280;60343;-32.030;115.880;2023-05-11T03:22:45;102868.44;;;23.03;38.18
72370;BME280;60343;-32.030;115.880;2023-05-11T03:25:21;102862.47;;;22.86;38.09
72370;BME280;60343;-32.030;115.880;2023-05-11T03:27:57;102865.38;;;22.78;38.92
72370;BME280;60343;-32.030;115.880;2023-05-11T03:30:32;102855.16;;;22.93;38.69
72370;BME280;60343;-32.030;115.880;2023-05-11T03:33:07;102850.53;;;23.00;38.28
72370;BME280;60343;-32.030;115.880;2023-05-11T03:35:43;102842.53;;;22.99;39.08
72370;BME280;60343;-32.030;115.880;2023-05-11T03:38:27;102843.66;;;23.11;38.51
72370;BME280;60343;-32.030;115.880;2023-05-11T03:41:04;102847.97;;;22.86;38.28
72370;BME280;60343;-32.030;115.880;2023-05-11T03:43:38;102847.00;;;22.65;38.33
72370;BME280;60343;-32.030;115.880;2023-05-11T03:46:14;102835.94;;;22.39;38.25
72370;BME280;60343;-32.030;115.880;2023-05-11T03:48:51;102837.44;;;22.42;38.82
72370;BME280;60343;-32.030;115.880;2023-05-11T03:51:26;102839.56;;;22.18;39.57
72370;BME280;60343;-32.030;115.880;2023-05-11T03:54:06;102831.97;;;22.07;40.06
72370;BME280;60343;-32.030;115.880;2023-05-11T03:56:41;102832.09;;;21.99;39.70
72370;BME280;60343;-32.030;115.880;2023-05-11T03:59:16;102828.59;;;22.05;39.30
72370;BME280;60343;-32.030;115.880;2023-05-11T04:01:51;102827.13;;;22.09;40.61
72370;BME280;60343;-32.030;115.880;2023-05-11T04:04:31;102815.75;;;21.99;39.46
72370;BME280;60343;-32.030;115.880;2023-05-11T04:07:05;102826.50;;;22.07;39.52
72370;BME280;60343;-32.030;115.880;2023-05-11T04:09:45;102824.22;;;22.11;39.40
72370;BME280;60343;-32.030;115.880;2023-05-11T04:12:20;102815.84;;;22.12;38.73
72370;BME280;60343;-32.030;115.880;2023-05-11T04:14:54;102811.44;;;22.11;39.44
72370;BME280;60343;-32.030;115.880;2023-05-11T04:17:29;102804.28;;;22.10;39.80
72370;BME280;60343;-32.030;115.880;2023-05-11T04:20:04;102815.91;;;22.25;38.90
72370;BME280;60343;-32.030;115.880;2023-05-11T04:22:38;102806.47;;;22.21;40.28
72370;BME280;60343;-32.030;115.880;2023-05-11T04:25:19;102807.19;;;22.37;39.09
72370;BME280;60343;-32.030;115.880;2023-05-11T04:27:54;102809.00;;;22.30;39.19
72370;BME280;60343;-32.030;115.880;2023-05-11T04:30:28;102808.25;;;22.49;40.91
72370;BME280;60343;-32.030;115.880;2023-05-11T04:33:03;102802.03;;;22.61;38.80
72370;BME280;60343;-32.030;115.880;2023-05-11T04:35:40;102797.19;;;22.63;39.16
72370;BME280;60343;-32.030;115.880;2023-05-11T04:38:14;102797.34;;;22.49;38.90
72370;BME280;60343;-32.030;115.880;2023-05-11T04:40:54;102792.13;;;22.54;39.79
72370;BME280;60343;-32.030;115.880;2023-05-11T04:43:29;102795.13;;;22.65;39.02
72370;BME280;60343;-32.030;115.880;2023-05-11T04:46:04;102798.34;;;22.76;39.40
72370;BME280;60343;-32.030;115.880;2023-05-11T04:48:39;102789.66;;;22.65;39.05
72370;BME280;60343;-32.030;115.880;2023-05-11T04:51:13;102782.91;;;22.55;38.88
72370;BME280;60343;-32.030;115.880;2023-05-11T04:53:48;102786.94;;;22.18;38.81
72370;BME280;60343;-32.030;115.880;2023-05-11T04:56:28;102782.09;;;22.20;39.26
72370;BME280;60343;-32.030;115.880;2023-05-11T04:59:07;102783.50;;;22.09;41.07
72370;BME280;60343;-32.030;115.880;2023-05-11T05:01:41;102773.78;;;22.00;40.44
72370;BME280;60343;-32.030;115.880;2023-05-11T05:04:16;102771.13;;;22.07;41.04
72370;BME280;60343;-32.030;115.880;2023-05-11T05:06:50;102771.03;;;22.35;40.80
72370;BME280;60343;-32.030;115.880;2023-05-11T05:09:24;102767.56;;;22.47;40.73
72370;BME280;60343;-32.030;115.880;2023-05-11T05:12:05;102777.66;;;22.60;39.79
72370;BME280;60343;-32.030;115.880;2023-05-11T05:14:39;102772.66;;;22.70;40.17
72370;BME280;60343;-32.030;115.880;2023-05-11T05:17:14;102770.47;;;22.93;39.00
72370;BME280;60343;-32.030;115.880;2023-05-11T05:19:48;102764.66;;;22.68;39.75
72370;BME280;60343;-32.030;115.880;2023-05-11T05:22:24;102758.97;;;22.57;39.94
72370;BME280;60343;-32.030;115.880;2023-05-11T05:24:59;102757.47;;;22.54;40.63
72370;BME280;60343;-32.030;115.880;2023-05-11T05:27:39;102756.78;;;22.39;40.97
72370;BME280;60343;-32.030;115.880;2023-05-11T05:30:13;102751.78;;;22.49;40.45
72370;BME280;60343;-32.030;115.880;2023-05-11T05:32:48;102757.09;;;22.64;38.69
72370;BME280;60343;-32.030;115.880;2023-05-11T05:35:22;102753.00;;;22.40;39.75
72370;BME280;60343;-32.030;115.880;2023-05-11T05:37:57;102762.16;;;22.19;40.03
72370;BME280;60343;-32.030;115.880;2023-05-11T05:40:31;102758.78;;;22.17;39.38
72370;BME280;60343;-32.030;115.880;2023-05-11T05:43:12;102754.69;;;22.00;40.94
72370;BME280;60343;-32.030;115.880;2023-05-11T05:45:46;102754.53;;;22.08;40.67
72370;BME280;60343;-32.030;115.880;2023-05-11T05:48:21;102757.09;;;22.16;39.40
72370;BME280;60343;-32.030;115.880;2023-05-11T05:50:56;102757.53;;;22.20;39.99
72370;BME280;60343;-32.030;115.880;2023-05-11T05:53:30;102743.47;;;22.16;39.91
72370;BME280;60343;-32.030;115.880;2023-05-11T05:56:05;102743.28;;;22.18;42.95
72370;BME280;60343;-32.030;115.880;2023-05-11T05:58:45;102746.25;;;22.30;41.45
72370;BME280;60343;-32.030;115.880;2023-05-11T06:01:20;102743.56;;;22.36;38.97
72370;BME280;60343;-32.030;115.880;2023-05-11T06:03:54;102749.53;;;22.12;39.26
72370;BME280;60343;-32.030;115.880;2023-05-11T06:06:29;102750.41;;;21.91;39.95
72370;BME280;60343;-32.030;115.880;2023-05-11T06:09:04;102750.63;;;21.62;41.33
72370;BME280;60343;-32.030;115.880;2023-05-11T06:11:38;102750.47;;;21.70;42.32
72370;BME280;60343;-32.030;115.880;2023-05-11T06:14:18;102749.31;;;21.86;40.24
72370;BME280;60343;-32.030;115.880;2023-05-11T06:16:53;102750.03;;;21.66;41.55
72370;BME280;60343;-32.030;115.880;2023-05-11T06:19:28;102744.88;;;21.50;42.21
72370;BME280;60343;-32.030;115.880;2023-05-11T06:22:02;102743.97;;;21.43;42.07
72370;BME280;60343;-32.030;115.880;2023-05-11T06:24:37;102744.28;;;21.33;42.51
72370;BME280;60343;-32.030;115.880;2023-05-11T06:27:11;102749.88;;;21.25;42.71
72370;BME280;60343;-32.030;115.880;2023-05-11T06:29:51;102748.53;;;21.36;42.60
72370;BME280;60343;-32.030;115.880;2023-05-11T06:32:26;102749.88;;;21.47;42.24
72370;BME280;60343;-32.030;115.880;2023-05-11T06:35:00;102750.75;;;21.54;41.29
72370;BME280;60343;-32.030;115.880;2023-05-11T06:37:35;102748.53;;;21.36;41.44
72370;BME280;60343;-32.030;115.880;2023-05-11T06:40:10;102754.91;;;21.22;41.71
72370;BME280;60343;-32.030;115.880;2023-05-11T06:42:44;102749.38;;;21.15;42.49
72370;BME280;60343;-32.030;115.880;2023-05-11T06:45:24;102755.94;;;21.21;42.56
72370;BME280;60343;-32.030;115.880;2023-05-11T06:47:59;102755.53;;;21.24;41.61
72370;BME280;60343;-32.030;115.880;2023-05-11T06:50:35;102751.31;;;21.21;42.19
72370;BME280;60343;-32.030;115.880;2023-05-11T06:53:09;102760.97;;;21.24;41.33
72370;BME280;60343;-32.030;115.880;2023-05-11T06:55:44;102760.81;;;21.11;42.76
72370;BME280;60343;-32.030;115.880;2023-05-11T06:58:18;102755.50;;;21.03;43.99
72370;BME280;60343;-32.030;115.880;2023-05-11T07:00:59;102755.22;;;20.97;42.43
72370;BME280;60343;-32.030;115.880;2023-05-11T07:03:34;102760.28;;;21.15;42.95
72370;BME280;60343;-32.030;115.880;2023-05-11T07:06:08;102764.19;;;21.13;41.61
72370;BME280;60343;-32.030;115.880;2023-05-11T07:08:43;102761.84;;;21.10;42.65
72370;BME280;60343;-32.030;115.880;2023-05-11T07:11:17;102758.44;;;21.01;42.44
72370;BME280;60343;-32.030;115.880;2023-05-11T07:13:52;102755.53;;;20.88;42.73
72370;BME280;60343;-32.030;115.880;2023-05-11T07:16:32;102762.16;;;20.79;44.48
72370;BME280;60343;-32.030;115.880;2023-05-11T07:19:06;102768.06;;;21.04;42.05
72370;BME280;60343;-32.030;115.880;2023-05-11T07:21:41;102765.41;;;20.89;43.14
72370;BME280;60343;-32.030;115.880;2023-05-11T07:24:15;102767.13;;;20.75;43.77
72370;BME280;60343;-32.030;115.880;2023-05-11T07:26:50;102764.41;;;20.75;43.65
72370;BME280;60343;-32.030;115.880;2023-05-11T07:29:28;102769.19;;;20.73;43.64
72370;BME280;60343;-32.030;115.880;2023-05-11T07:32:08;102772.91;;;20.66;44.27
72370;BME280;60343;-32.030;115.880;2023-05-11T07:34:43;102775.94;;;20.77;44.87
72370;BME280;60343;-32.030;115.880;2023-05-11T07:37:18;102765.66;;;20.94;42.65
72370;BME280;60343;-32.030;115.880;2023-05-11T07:39:53;102774.41;;;20.89;42.00
72370;BME280;60343;-32.030;115.880;2023-05-11T07:42:28;102777.31;;;20.88;42.65
72370;BME280;60343;-32.030;115.880;2023-05-11T07:45:03;102771.13;;;20.94;42.46
72370;BME280;60343;-32.030;115.880;2023-05-11T07:47:43;102777.56;;;20.72;43.41
72370;BME280;60343;-32.030;115.880;2023-05-11T07:50:17;102772.50;;;20.69;42.70
72370;BME280;60343;-32.030;115.880;2023-05-11T07:52:52;102768.88;;;20.83;43.13
72370;BME280;60343;-32.030;115.880;2023-05-11T07:55:26;102772.91;;;20.66;44.87
72370;BME280;60343;-32.030;115.880;2023-05-11T07:58:01;102774.59;;;20.67;43.94
72370;BME280;60343;-32.030;115.880;2023-05-11T08:00:35;102779.53;;;20.63;43.65
72370;BME280;60343;-32.030;115.880;2023-05-11T08:03:15;102775.53;;;20.59;43.72
72370;BME280;60343;-32.030;115.880;2023-05-11T08:05:50;102776.66;;;20.65;43.99
72370;BME280;60343;-32.030;115.880;2023-05-11T08:08:25;102774.97;;;20.49;44.36
72370;BME280;60343;-32.030;115.880;2023-05-11T08:11:00;102778.94;;;20.32;44.45
72370;BME280;60343;-32.030;115.880;2023-05-11T08:13:34;102776.56;;;20.43;44.32
72370;BME280;60343;-32.030;115.880;2023-05-11T08:16:09;102783.41;;;20.25;45.28
72370;BME280;60343;-32.030;115.880;2023-05-11T08:18:50;102781.91;;;20.07;45.56
72370;BME280;60343;-32.030;115.880;2023-05-11T08:21:24;102784.63;;;20.22;44.67
72370;BME280;60343;-32.030;115.880;2023-05-11T08:23:59;102783.03;;;20.13;45.13
72370;BME280;60343;-32.030;115.880;2023-05-11T08:26:33;102785.16;;;19.88;46.43
72370;BME280;60343;-32.030;115.880;2023-05-11T08:29:09;102785.16;;;19.74;46.68
72370;BME280;60343;-32.030;115.880;2023-05-11T08:31:43;102794.41;;;19.64;47.41
72370;BME280;60343;-32.030;115.880;2023-05-11T08:34:23;102791.13;;;19.69;46.89
72370;BME280;60343;-32.030;115.880;2023-05-11T08:36:58;102792.84;;;19.70;46.82
72370;BME280;60343;-32.030;115.880;2023-05-11T08:39:33;102790.34;;;19.46;47.71
72370;BME280;60343;-32.030;115.880;2023-05-11T08:42:08;102798.16;;;19.41;48.19
72370;BME280;60343;-32.030;115.880;2023-05-11T08:44:43;102796.03;;;19.28;48.28
72370;BME280;60343;-32.030;115.880;2023-05-11T08:47:19;102797.50;;;19.16;48.54
72370;BME280;60343;-32.030;115.880;2023-05-11T08:49:59;102796.09;;;19.20;49.74
72370;BME280;60343;-32.030;115.880;2023-05-11T08:52:34;102800.19;;;19.16;49.82
72370;BME280;60343;-32.030;115.880;2023-05-11T08:55:10;102798.75;;;19.28;48.62
72370;BME280;60343;-32.030;115.880;2023-05-11T08:57:48;102796.31;;;19.33;48.31
72370;BME280;60343;-32.030;115.880;2023-05-11T09:00:25;102794.78;;;19.16;49.16
72370;BME280;60343;-32.030;115.880;2023-05-11T09:03:00;102788.06;;;19.04;49.31
72370;BME280;60343;-32.030;115.880;2023-05-11T09:05:41;102796.19;;;19.26;49.06
72370;BME280;60343;-32.030;115.880;2023-05-11T09:08:18;102800.19;;;19.16;49.27
72370;BME280;60343;-32.030;115.880;2023-05-11T09:10:54;102804.84;;;19.30;48.65
72370;BME280;60343;-32.030;115.880;2023-05-11T09:13:29;102805.97;;;19.13;49.33
72370;BME280;60343;-32.030;115.880;2023-05-11T09:16:04;102802.25;;;19.14;49.45
72370;BME280;60343;-32.030;115.880;2023-05-11T09:18:47;102800.94;;;19.02;49.74
72370;BME280;60343;-32.030;115.880;2023-05-11T09:21:27;102798.69;;;18.82;50.80
72370;BME280;60343;-32.030;115.880;2023-05-11T09:24:03;102803.59;;;18.87;50.49
72370;BME280;60343;-32.030;115.880;2023-05-11T09:26:38;102806.66;;;18.84;50.55
72370;BME280;60343;-32.030;115.880;2023-05-11T09:29:12;102807.53;;;18.84;50.44
72370;BME280;60343;-32.030;115.880;2023-05-11T09:31:47;102814.66;;;18.77;50.49
72370;BME280;60343;-32.030;115.880;2023-05-11T09:34:22;102814.97;;;18.82;50.53
72370;BME280;60343;-32.030;115.880;2023-05-11T09:37:02;102816.50;;;18.85;50.60
72370;BME280;60343;-32.030;115.880;2023-05-11T09:39:38;102821.09;;;18.76;51.13
72370;BME280;60343;-32.030;115.880;2023-05-11T09:42:13;102821.31;;;18.75;51.17
72370;BME280;60343;-32.030;115.880;2023-05-11T09:44:48;102821.53;;;18.57;51.81
72370;BME280;60343;-32.030;115.880;2023-05-11T09:47:23;102819.69;;;18.41;52.64
72370;BME280;60343;-32.030;115.880;2023-05-11T09:49:57;102828.81;;;18.57;51.91
72370;BME280;60343;-32.030;115.880;2023-05-11T09:52:49;102830.75;;;18.40;52.38
72370;BME280;60343;-32.030;115.880;2023-05-11T09:55:24;102826.81;;;18.51;52.59
72370;BME280;60343;-32.030;115.880;2023-05-11T09:57:59;102828.03;;;18.32;52.70
72370;BME280;60343;-32.030;115.880;2023-05-11T10:00:34;102826.34;;;18.31;53.45
72370;BME280;60343;-32.030;115.880;2023-05-11T10:03:08;102828.41;;;18.29;52.69
72370;BME280;60343;-32.030;115.880;2023-05-11T10:05:55;102829.94;;;18.23;53.44
72370;BME280;60343;-32.030;115.880;2023-05-11T10:08:36;102832.47;;;18.17;53.98
72370;BME280;60343;-32.030;115.880;2023-05-11T10:11:10;102839.78;;;18.08;54.15
72370;BME280;60343;-32.030;115.880;2023-05-11T10:13:45;102834.72;;;17.97;54.44
72370;BME280;60343;-32.030;115.880;2023-05-11T10:16:20;102842.50;;;17.92;54.63
72370;BME280;60343;-32.030;115.880;2023-05-11T10:18:54;102842.03;;;17.88;54.78
72370;BME280;60343;-32.030;115.880;2023-05-11T10:21:30;102849.81;;;17.83;54.73
72370;BME280;60343;-32.030;115.880;2023-05-11T10:24:11;102856.59;;;17.79;55.31
72370;BME280;60343;-32.030;115.880;2023-05-11T10:26:46;102852.19;;;17.78;55.19
72370;BME280;60343;-32.030;115.880;2023-05-11T10:29:21;102848.28;;;17.73;55.65
72370;BME280;60343;-32.030;115.880;2023-05-11T10:31:57;102849.81;;;17.67;56.10
72370;BME280;60343;-32.030;115.880;2023-05-11T10:34:33;102860.66;;;17.67;55.69
72370;BME280;60343;-32.030;115.880;2023-05-11T10:37:08;102861.84;;;17.65;55.84
72370;BME280;60343;-32.030;115.880;2023-05-11T10:39:48;102858.59;;;17.61;56.12
72370;BME280;60343;-32.030;115.880;2023-05-11T10:45:25;102865.69;;;17.54;56.25
72370;BME280;60343;-32.030;115.880;2023-05-11T10:48:13;102867.22;;;17.48;56.83
72370;BME280;60343;-32.030;115.880;2023-05-11T10:51:06;102875.50;;;17.47;56.53
72370;BME280;60343;-32.030;115.880;2023-05-11T10:54:00;102878.88;;;17.49;56.62
72370;BME280;60343;-32.030;115.880;2023-05-11T10:56:57;102873.13;;;17.44;56.74
72370;BME280;60343;-32.030;115.880;2023-05-11T11:02:48;102890.19;;;17.36;57.23
72370;BME280;60343;-32.030;115.880;2023-05-11T11:05:33;102886.28;;;17.31;56.96
72370;BME280;60343;-32.030;115.880;2023-05-11T11:08:10;102890.53;;;17.33;57.49
72370;BME280;60343;-32.030;115.880;2023-05-11T11:10:45;102897.31;;;17.29;57.49
72370;BME280;60343;-32.030;115.880;2023-05-11T11:13:25;102893.22;;;17.25;57.76
72370;BME280;60343;-32.030;115.880;2023-05-11T11:16:12;102894.75;;;17.20;57.74
72370;BME280;60343;-32.030;115.880;2023-05-11T11:18:48;102898.59;;;17.17;57.89
72370;BME280;60343;-32.030;115.880;2023-05-11T11:21:39;102894.03;;;17.17;57.45
72370;BME280;60343;-32.030;115.880;2023-05-11T11:27:16;102894.03;;;17.09;57.97
72370;BME280;60343;-32.030;115.880;2023-05-11T11:36:06;102897.66;;;16.92;58.87
72370;BME280;60343;-32.030;115.880;2023-05-11T11:38:58;102901.84;;;16.79;59.47
72370;BME280;60343;-32.030;115.880;2023-05-11T11:41:32;102906.19;;;16.71;59.68
72370;BME280;60343;-32.030;115.880;2023-05-11T11:44:20;102909.34;;;16.59;60.32
72370;BME280;60343;-32.030;115.880;2023-05-11T11:47:11;102902.31;;;16.48;60.68
72370;BME280;60343;-32.030;115.880;2023-05-11T11:49:47;102904.81;;;16.42;60.47
72370;BME280;60343;-32.030;115.880;2023-05-11T11:52:39;102904.41;;;16.28;61.36
72370;BME280;60343;-32.030;115.880;2023-05-11T11:55:44;102905.81;;;16.15;61.73
72370;BME280;60343;-32.030;115.880;2023-05-11T12:01:22;102907.31;;;15.92;62.76
72370;BME280;60343;-32.030;115.880;2023-05-11T12:07:07;102914.66;;;15.81;62.54
72370;BME280;60343;-32.030;115.880;2023-05-11T12:09:51;102901.69;;;15.85;63.43
72370;BME280;60343;-32.030;115.880;2023-05-11T12:12:25;102903.72;;;15.83;63.76
72370;BME280;60343;-32.030;115.880;2023-05-11T12:15:00;102899.31;;;15.82;64.25
72370;BME280;60343;-32.030;115.880;2023-05-11T12:17:37;102906.63;;;15.72;64.08
72370;BME280;60343;-32.030;115.880;2023-05-11T12:20:14;102902.47;;;15.60;64.60
72370;BME280;60343;-32.030;115.880;2023-05-11T12:22:49;102909.34;;;15.44;65.26
72370;BME280;60343;-32.030;115.880;2023-05-11T12:25:29;102905.34;;;15.31;66.00
72370;BME280;60343;-32.030;115.880;2023-05-11T12:28:04;102908.56;;;15.17;66.06
72370;BME280;60343;-32.030;115.880;2023-05-11T12:30:40;102902.69;;;15.03;66.25
72370;BME280;60343;-32.030;115.880;2023-05-11T12:33:15;102907.41;;;14.92;66.28
72370;BME280;60343;-32.030;115.880;2023-05-11T12:35:52;102912.28;;;14.79;67.17
72370;BME280;60343;-32.030;115.880;2023-05-11T12:38:28;102911.47;;;14.69;67.37
72370;BME280;60343;-32.030;115.880;2023-05-11T12:41:08;102913.53;;;14.57;67.26
72370;BME280;60343;-32.030;115.880;2023-05-11T12:43:42;102913.81;;;14.44;67.94
72370;BME280;60343;-32.030;115.880;2023-05-11T12:46:17;102911.88;;;14.37;68.41
72370;BME280;60343;-32.030;115.880;2023-05-11T12:48:52;102907.03;;;14.31;67.90
72370;BME280;60343;-32.030;115.880;2023-05-11T12:51:50;102912.31;;;14.23;69.15
72370;BME280;60343;-32.030;115.880;2023-05-11T12:54:30;102913.00;;;14.15;69.02
72370;BME280;60343;-32.030;115.880;2023-05-11T12:57:23;102915.72;;;14.05;69.08
72370;BME280;60343;-32.030;115.880;2023-05-11T13:00:11;102919.28;;;13.96;69.81
72370;BME280;60343;-32.030;115.880;2023-05-11T13:02:48;102923.81;;;13.86;70.10
72370;BME280;60343;-32.030;115.880;2023-05-11T13:05:25;102920.41;;;13.74;70.67
72370;BME280;60343;-32.030;115.880;2023-05-11T13:08:00;102919.13;;;13.69;70.15
72370;BME280;60343;-32.030;115.880;2023-05-11T13:10:36;102916.44;;;13.59;70.86
72370;BME280;60343;-32.030;115.880;2023-05-11T13:13:25;102911.19;;;13.48;71.94
72370;BME280;60343;-32.030;115.880;2023-05-11T13:16:00;102916.41;;;13.40;72.01
72370;BME280;60343;-32.030;115.880;2023-05-11T13:18:34;102899.84;;;13.35;72.30
72370;BME280;60343;-32.030;115.880;2023-05-11T13:21:12;102912.28;;;13.26;72.38
72370;BME280;60343;-32.030;115.880;2023-05-11T13:23:49;102912.97;;;13.19;72.41
72370;BME280;60343;-32.030;115.880;2023-05-11T13:26:24;102903.88;;;13.10;72.92
72370;BME280;60343;-32.030;115.880;2023-05-11T13:29:04;102903.84;;;13.01;73.21
72370;BME280;60343;-32.030;115.880;2023-05-11T13:31:46;102905.22;;;12.95;73.79
72370;BME280;60343;-32.030;115.880;2023-05-11T13:34:21;102906.38;;;12.93;73.39